Time;durP1;ratioP1;P1;durP2;ratioP2;P2;SDS_P1;SDS_P2;PMS_P1;PMS_P2;Temp;Humidity;BMP_temperature;BMP_pressure;BME280_temperature;BME280_humidity;BME280_pressure;Samples;Min_cycle;Max_cycle;Signal;HPM_P1;HPM_P2
2022/08/01 03:01:20;;;;;;;0.70;0.60;;;23.20;62.30;;;;;;5790031;23;20492;-75
2022/08/01 03:03:47;;;;;;;0.70;0.50;;;23.20;62.30;;;;;;5032938;28;20539;-75
2022/08/01 03:06:15;;;;;;;0.70;0.60;;;23.30;62.40;;;;;;5032851;28;20450;-75
2022/08/01 03:08:43;;;;;;;0.77;0.60;;;23.10;62.70;;;;;;5032503;28;20501;-75
2022/08/01 03:11:11;;;;;;;0.70;0.60;;;23.10;62.90;;;;;;5032767;28;20876;-74
2022/08/01 03:13:39;;;;;;;0.70;0.60;;;23.10;63.00;;;;;;5033985;28;20471;-74
2022/08/01 03:16:08;;;;;;;0.80;0.60;;;23.20;63.10;;;;;;5035971;28;20497;-74
2022/08/01 03:18:37;;;;;;;0.70;0.60;;;23.20;63.00;;;;;;5036099;28;20324;-75
2022/08/01 03:21:05;;;;;;;0.70;0.60;;;23.20;63.20;;;;;;5035787;28;20874;-75
2022/08/01 03:23:33;;;;;;;0.70;0.60;;;23.10;63.40;;;;;;5036065;28;20517;-75
2022/08/01 03:26:02;;;;;;;0.70;0.60;;;23.10;63.60;;;;;;5036033;28;20457;-74
2022/08/01 03:28:30;;;;;;;0.70;0.70;;;23.20;63.50;;;;;;5036007;28;20851;-74
2022/08/01 03:30:59;;;;;;;0.70;0.60;;;23.20;63.50;;;;;;5035878;28;20470;-75
2022/08/01 03:33:26;;;;;;;0.70;0.60;;;23.10;63.80;;;;;;5035917;28;20447;-74
2022/08/01 03:35:57;;;;;;;0.70;0.60;;;23.10;63.90;;;;;;5035856;28;20212;-74
2022/08/01 03:38:26;;;;;;;0.70;0.60;;;23.20;63.90;;;;;;5035802;28;20467;-74
2022/08/01 03:40:56;;;;;;;0.80;0.60;;;23.10;64.00;;;;;;5035681;28;20518;-75
2022/08/01 03:43:35;;;;;;;0.70;0.60;;;23.10;64.20;;;;;;5035739;28;20436;-74
2022/08/01 03:46:08;;;;;;;0.70;0.60;;;23.10;64.40;;;;;;5035720;28;20442;-74
2022/08/01 03:48:40;;;;;;;0.70;0.60;;;23.10;64.50;;;;;;5035684;28;20857;-74
2022/08/01 03:51:09;;;;;;;0.70;0.60;;;23.10;64.60;;;;;;5035525;28;20468;-74
2022/08/01 03:53:37;;;;;;;0.70;0.60;;;22.90;64.90;;;;;;5035531;28;20444;-75
2022/08/01 03:56:08;;;;;;;0.70;0.60;;;22.90;65.00;;;;;;5035457;28;20448;-75
2022/08/01 03:58:35;;;;;;;0.70;0.50;;;22.90;65.30;;;;;;5035398;28;20503;-75
2022/08/01 04:01:02;;;;;;;0.70;0.60;;;22.90;65.30;;;;;;5034937;28;20476;-75
2022/08/01 04:03:29;;;;;;;0.70;0.50;;;22.90;65.60;;;;;;5035369;28;20471;-75
2022/08/01 04:05:56;;;;;;;1.20;0.63;;;22.90;65.60;;;;;;5035321;28;20483;-74
2022/08/01 04:08:24;;;;;;;0.70;0.60;;;22.90;65.70;;;;;;5035258;28;20448;-75
2022/08/01 04:10:51;;;;;;;0.70;0.60;;;22.90;65.80;;;;;;5035143;28;20471;-75
2022/08/01 04:13:17;;;;;;;0.80;0.60;;;22.90;65.80;;;;;;5035122;28;20447;-74
2022/08/01 04:15:44;;;;;;;0.70;0.63;;;22.90;65.80;;;;;;5034758;28;20869;-75
2022/08/01 04:18:11;;;;;;;0.73;0.60;;;22.90;65.90;;;;;;5035000;28;20487;-75
2022/08/01 04:20:37;;;;;;;0.70;0.60;;;22.90;65.90;;;;;;5034914;28;20447;-75
2022/08/01 04:23:04;;;;;;;0.70;0.60;;;22.90;65.90;;;;;;5034989;28;20452;-75
2022/08/01 04:25:34;;;;;;;0.70;0.60;;;23.00;66.00;;;;;;5034796;28;20502;-75
2022/08/01 04:28:03;;;;;;;0.70;0.67;;;23.00;66.10;;;;;;5034952;28;20435;-75
2022/08/01 04:30:34;;;;;;;0.80;0.60;;;23.00;66.10;;;;;;5034788;28;20471;-75
2022/08/01 04:33:05;;;;;;;0.70;0.60;;;23.10;65.90;;;;;;5034820;28;20514;-75
2022/08/01 04:35:33;;;;;;;0.70;0.60;;;23.10;65.90;;;;;;5034840;28;20515;-75
2022/08/01 04:38:03;;;;;;;0.70;0.57;;;23.20;65.90;;;;;;5034639;28;20558;-74
2022/08/01 04:40:32;;;;;;;0.80;0.57;;;23.20;65.90;;;;;;5034572;28;20498;-75
2022/08/01 04:43:00;;;;;;;0.70;0.57;;;23.30;65.70;;;;;;5034561;28;20471;-75
2022/08/01 04:45:27;;;;;;;0.70;0.60;;;23.30;65.60;;;;;;5034532;28;20510;-74
2022/08/01 04:47:54;;;;;;;0.80;0.60;;;23.40;65.50;;;;;;5034503;28;20456;-74
2022/08/01 04:50:22;;;;;;;0.70;0.60;;;23.40;65.40;;;;;;5034447;28;20443;-75
2022/08/01 04:52:50;;;;;;;0.70;0.70;;;23.40;65.50;;;;;;5034450;28;20550;-74
2022/08/01 04:55:17;;;;;;;0.70;0.50;;;23.50;65.40;;;;;;5034416;28;20447;-75
2022/08/01 04:57:48;;;;;;;0.70;0.60;;;23.60;65.40;;;;;;5035129;28;20570;-75
2022/08/01 05:00:17;;;;;;;0.70;0.60;;;23.60;65.40;;;;;;5034379;28;20836;-75
2022/08/01 05:02:43;;;;;;;0.80;0.60;;;23.70;65.30;;;;;;5033949;28;20576;-75
2022/08/01 05:05:11;;;;;;;0.60;0.50;;;23.70;65.30;;;;;;5034149;28;20829;-75
2022/08/01 05:07:37;;;;;;;0.70;0.60;;;23.80;65.20;;;;;;5034139;28;20474;-75
2022/08/01 05:10:05;;;;;;;0.70;0.60;;;23.80;65.30;;;;;;5034126;28;20444;-74
2022/08/01 05:12:32;;;;;;;0.70;0.60;;;23.80;65.40;;;;;;5033666;28;20982;-74
2022/08/01 05:15:01;;;;;;;0.70;0.60;;;23.80;65.20;;;;;;5034034;28;20513;-75
2022/08/01 05:17:28;;;;;;;0.80;0.60;;;23.90;65.10;;;;;;5033814;28;20915;-75
2022/08/01 05:19:54;;;;;;;0.70;0.60;;;24.00;64.80;;;;;;5033952;28;20821;-75
2022/08/01 05:22:22;;;;;;;0.70;0.63;;;24.10;64.80;;;;;;5033861;28;20464;-75
2022/08/01 05:24:48;;;;;;;0.70;0.57;;;24.20;64.40;;;;;;5033819;28;20555;-75
2022/08/01 05:27:15;;;;;;;0.70;0.50;;;24.30;64.40;;;;;;5033483;28;20817;-74
2022/08/01 05:29:42;;;;;;;0.70;0.50;;;24.40;64.20;;;;;;5033809;28;20447;-75
2022/08/01 05:32:10;;;;;;;0.70;0.50;;;24.40;64.10;;;;;;5033680;28;20479;-75
2022/08/01 05:34:37;;;;;;;0.70;0.60;;;24.60;64.20;;;;;;5033672;28;20447;-73
2022/08/01 05:37:03;;;;;;;0.70;0.60;;;24.60;63.90;;;;;;5033138;28;20452;-73
2022/08/01 05:39:30;;;;;;;0.70;0.70;;;24.70;63.80;;;;;;5033648;28;20494;-73
2022/08/01 05:42:20;;;;;;;0.70;0.50;;;24.80;63.80;;;;;;5033502;28;20475;-73
2022/08/01 05:44:47;;;;;;;0.70;0.60;;;24.90;63.40;;;;;;5033567;28;20428;-73
2022/08/01 05:47:15;;;;;;;0.70;0.60;;;25.00;63.60;;;;;;5033604;28;20479;-73
2022/08/01 05:49:42;;;;;;;0.70;0.60;;;25.10;63.40;;;;;;5033515;28;20452;-73
2022/08/01 05:52:09;;;;;;;0.70;0.50;;;25.20;63.40;;;;;;5033441;28;20541;-73
2022/08/01 05:54:35;;;;;;;0.70;0.60;;;25.40;62.90;;;;;;5033535;28;20493;-74
2022/08/01 05:57:02;;;;;;;0.80;0.57;;;25.60;62.30;;;;;;5033461;28;20498;-73
2022/08/01 05:59:29;;;;;;;0.60;0.50;;;25.80;61.80;;;;;;5033300;28;20537;-73
2022/08/01 06:01:56;;;;;;;0.70;0.50;;;25.90;61.50;;;;;;5032984;28;20498;-74
2022/08/01 06:04:24;;;;;;;0.70;0.57;;;26.10;61.10;;;;;;5033283;28;20452;-74
2022/08/01 06:06:50;;;;;;;0.70;0.60;;;26.20;60.50;;;;;;5032954;28;21001;-74
2022/08/01 06:09:17;;;;;;;0.70;0.70;;;26.50;60.40;;;;;;5033285;28;20440;-74
2022/08/01 06:11:44;;;;;;;0.70;0.60;;;26.70;60.00;;;;;;5033253;28;20463;-74
2022/08/01 06:14:10;;;;;;;0.70;0.57;;;26.80;59.40;;;;;;5033348;28;20447;-74
2022/08/01 06:16:37;;;;;;;0.60;0.50;;;26.90;59.30;;;;;;5033330;28;20517;-74
2022/08/01 06:19:04;;;;;;;0.70;0.60;;;27.00;59.20;;;;;;5032864;28;20991;-74
2022/08/01 06:21:32;;;;;;;0.70;0.50;;;27.10;59.20;;;;;;5032888;28;20878;-74
2022/08/01 06:23:58;;;;;;;0.70;0.50;;;27.30;58.80;;;;;;5033198;28;20456;-74
2022/08/01 06:26:25;;;;;;;0.70;0.60;;;27.10;59.20;;;;;;5033150;28;20458;-75
2022/08/01 06:28:52;;;;;;;1.47;0.60;;;27.30;58.90;;;;;;5033008;28;20509;-75
2022/08/01 06:31:18;;;;;;;0.70;0.53;;;27.30;58.80;;;;;;5033015;28;20542;-75
2022/08/01 06:33:45;;;;;;;0.80;0.63;;;27.30;58.50;;;;;;5033124;28;20505;-75
2022/08/01 06:36:11;;;;;;;0.80;0.60;;;27.10;60.10;;;;;;5033074;28;20443;-74
2022/08/01 06:38:39;;;;;;;0.70;0.60;;;27.20;59.30;;;;;;5033110;28;20548;-74
2022/08/01 06:41:06;;;;;;;0.70;0.60;;;27.50;59.00;;;;;;5032990;28;20467;-74
2022/08/01 06:43:33;;;;;;;0.60;0.50;;;27.50;58.10;;;;;;5033059;28;20452;-75
2022/08/01 06:46:00;;;;;;;0.63;0.53;;;27.40;58.30;;;;;;5033004;28;20443;-74
2022/08/01 06:48:26;;;;;;;0.70;0.50;;;27.30;58.40;;;;;;5032970;28;20494;-74
2022/08/01 06:51:07;;;;;;;0.70;0.50;;;27.40;58.60;;;;;;5036000;28;20467;-74
2022/08/01 06:53:34;;;;;;;0.70;0.50;;;27.40;59.00;;;;;;5036775;28;20446;-74
2022/08/01 06:56:02;;;;;;;0.70;0.50;;;27.40;59.30;;;;;;5036607;28;20460;-73
2022/08/01 06:58:29;;;;;;;0.70;0.60;;;27.60;58.80;;;;;;5036489;28;20479;-73
2022/08/01 07:00:55;;;;;;;0.70;0.50;;;27.70;57.80;;;;;;5036249;28;20487;-74
2022/08/01 07:03:22;;;;;;;0.70;0.50;;;27.90;57.90;;;;;;5036717;28;20482;-75
2022/08/01 07:05:49;;;;;;;0.70;0.60;;;28.10;58.10;;;;;;5036282;28;20446;-75
2022/08/01 07:08:15;;;;;;;0.80;0.60;;;28.20;57.20;;;;;;5036515;28;20454;-76
2022/08/01 07:10:43;;;;;;;0.70;0.50;;;28.30;56.80;;;;;;5037285;28;20521;-75
2022/08/01 07:13:12;;;;;;;0.70;0.60;;;28.40;56.50;;;;;;5039333;28;20443;-75
2022/08/01 07:15:38;;;;;;;0.70;0.60;;;28.00;56.50;;;;;;5038739;28;20448;-76
2022/08/01 07:18:05;;;;;;;0.80;0.60;;;28.10;56.80;;;;;;5038078;28;20896;-74
2022/08/01 07:20:32;;;;;;;0.70;0.50;;;28.20;56.40;;;;;;5036861;28;20454;-74
2022/08/01 07:22:58;;;;;;;0.70;0.50;;;28.00;55.70;;;;;;5038163;28;20443;-75
2022/08/01 07:25:25;;;;;;;0.70;0.60;;;27.90;55.90;;;;;;5038094;28;20455;-75
2022/08/01 07:27:52;;;;;;;0.70;0.50;;;27.90;56.90;;;;;;5037026;28;20454;-75
2022/08/01 07:30:20;;;;;;;0.70;0.60;;;28.10;56.00;;;;;;5037646;28;20459;-76
2022/08/01 07:32:46;;;;;;;1.13;0.50;;;28.30;55.80;;;;;;5036361;28;20495;-75
2022/08/01 07:35:13;;;;;;;0.80;0.50;;;28.10;55.60;;;;;;5036127;28;20858;-75
2022/08/01 07:37:40;;;;;;;0.80;0.60;;;27.90;56.60;;;;;;5035985;28;20451;-77
2022/08/01 07:40:07;;;;;;;0.70;0.60;;;28.20;56.90;;;;;;5035966;28;20876;-77
2022/08/01 07:42:34;;;;;;;0.70;0.50;;;28.40;55.40;;;;;;5035709;28;20467;-76
2022/08/01 07:45:01;;;;;;;0.70;0.60;;;28.70;54.80;;;;;;5035742;28;20449;-77
2022/08/01 07:47:29;;;;;;;0.70;0.50;;;28.80;54.50;;;;;;5035378;28;20939;-77
2022/08/01 07:50:00;;;;;;;0.70;0.50;;;29.10;54.40;;;;;;5035635;28;20448;-77
2022/08/01 07:52:27;;;;;;;0.70;0.60;;;29.20;53.90;;;;;;5035600;28;20463;-77
2022/08/01 07:54:54;;;;;;;0.80;0.60;;;29.30;53.80;;;;;;5035636;28;20538;-77
2022/08/01 07:57:21;;;;;;;0.70;0.60;;;29.40;53.30;;;;;;5035508;28;20451;-76
2022/08/01 07:59:47;;;;;;;1.00;0.70;;;29.50;53.70;;;;;;5034905;28;20479;-77
2022/08/01 08:02:14;;;;;;;0.70;0.57;;;29.70;54.30;;;;;;5035029;28;20541;-77
2022/08/01 08:04:42;;;;;;;0.70;0.60;;;29.30;53.10;;;;;;5035563;28;20454;-76
2022/08/01 08:07:09;;;;;;;1.30;0.70;;;29.20;54.10;;;;;;5035450;28;20460;-75
2022/08/01 08:09:36;;;;;;;0.70;0.60;;;29.00;54.10;;;;;;5035403;28;20447;-77
2022/08/01 08:12:03;;;;;;;0.90;0.67;;;28.70;55.10;;;;;;5035657;28;20888;-77
2022/08/01 08:14:30;;;;;;;0.70;0.60;;;28.70;55.30;;;;;;5036086;28;20550;-77
2022/08/01 08:16:56;;;;;;;0.70;0.60;;;28.80;54.60;;;;;;5036093;28;20534;-77
2022/08/01 08:19:23;;;;;;;0.70;0.60;;;28.70;54.60;;;;;;5035410;28;20896;-77
2022/08/01 08:21:51;;;;;;;0.93;0.83;;;28.80;54.90;;;;;;5035742;28;20537;-77
2022/08/01 08:24:20;;;;;;;0.70;0.60;;;29.00;54.90;;;;;;5035078;28;20930;-77
2022/08/01 08:26:48;;;;;;;0.70;0.70;;;29.20;53.60;;;;;;5035308;28;20448;-77
2022/08/01 08:29:14;;;;;;;0.90;0.70;;;29.30;54.80;;;;;;5041037;28;20452;-76
2022/08/01 08:31:41;;;;;;;0.70;0.50;;;29.00;54.60;;;;;;5036418;28;20464;-77
2022/08/01 08:34:08;;;;;;;0.80;0.63;;;28.90;54.30;;;;;;5037143;28;20458;-76
2022/08/01 08:36:35;;;;;;;1.00;0.70;;;28.80;54.60;;;;;;5042446;28;20505;-77
2022/08/01 08:39:03;;;;;;;1.37;0.70;;;28.80;54.50;;;;;;5038055;28;20483;-77
2022/08/01 08:41:31;;;;;;;0.70;0.60;;;28.70;55.70;;;;;;5034895;28;20470;-74
2022/08/01 08:43:58;;;;;;;0.70;0.60;;;28.60;55.20;;;;;;5034916;28;20479;-76
2022/08/01 08:46:27;;;;;;;0.60;0.53;;;28.50;56.30;;;;;;5035224;28;20447;-74
2022/08/01 08:48:54;;;;;;;0.70;0.60;;;28.70;56.30;;;;;;5034891;28;20448;-75
2022/08/01 08:51:24;;;;;;;0.70;0.60;;;28.80;55.10;;;;;;5034569;28;20471;-74
2022/08/01 08:53:54;;;;;;;0.70;0.63;;;28.80;54.60;;;;;;5034710;28;20447;-74
2022/08/01 08:56:24;;;;;;;0.70;0.70;;;28.70;54.40;;;;;;5034649;28;20459;-76
2022/08/01 08:58:51;;;;;;;0.70;0.60;;;28.60;55.00;;;;;;5034544;28;20475;-75
2022/08/01 09:01:18;;;;;;;0.70;0.60;;;28.80;55.00;;;;;;5034377;28;20486;-75
2022/08/01 09:03:45;;;;;;;0.70;0.60;;;29.20;54.40;;;;;;5034725;28;20459;-71
2022/08/01 09:06:12;;;;;;;0.70;0.60;;;29.00;54.50;;;;;;5034390;28;20502;-73
2022/08/01 09:08:39;;;;;;;1.33;0.80;;;28.90;55.80;;;;;;5033934;28;20822;-73
2022/08/01 09:11:07;;;;;;;0.70;0.70;;;29.00;55.30;;;;;;5034289;28;20476;-73
2022/08/01 09:13:35;;;;;;;1.10;0.70;;;29.00;54.80;;;;;;5033541;28;20493;-74
2022/08/01 09:16:02;;;;;;;0.70;0.67;;;29.10;54.30;;;;;;5035432;28;20450;-70
2022/08/01 09:18:33;;;;;;;0.70;0.60;;;28.60;54.90;;;;;;5034143;28;20455;-76
2022/08/01 09:21:16;;;;;;;0.70;0.70;;;28.40;55.60;;;;;;5033844;28;20974;-75
2022/08/01 09:23:45;;;;;;;0.70;0.50;;;28.40;55.50;;;;;;5033790;28;20937;-76
2022/08/01 09:26:13;;;;;;;0.70;0.60;;;28.30;56.00;;;;;;5034155;28;20454;-77
2022/08/01 09:28:42;;;;;;;0.70;0.60;;;27.90;56.40;;;;;;5034473;28;20444;-74
2022/08/01 09:31:10;;;;;;;0.80;0.60;;;28.00;57.00;;;;;;5033507;28;20881;-76
2022/08/01 09:33:51;;;;;;;0.70;0.60;;;28.10;57.30;;;;;;5033692;28;21029;-76
2022/08/01 09:36:19;;;;;;;0.70;0.60;;;28.30;56.50;;;;;;5033785;28;20452;-76
2022/08/01 09:38:45;;;;;;;0.70;0.70;;;28.40;56.30;;;;;;5033570;28;20472;-75
2022/08/01 09:41:12;;;;;;;0.70;0.60;;;28.50;55.70;;;;;;5033623;28;20517;-75
2022/08/01 09:43:39;;;;;;;0.70;0.70;;;28.40;55.50;;;;;;5033623;28;20451;-76
2022/08/01 09:46:11;;;;;;;0.80;0.80;;;28.40;56.40;;;;;;5033548;28;20452;-76
2022/08/01 09:48:39;;;;;;;0.70;0.70;;;28.80;55.00;;;;;;5033518;28;20494;-76
2022/08/01 09:51:06;;;;;;;0.70;0.70;;;29.10;53.90;;;;;;5033424;28;20524;-75
2022/08/01 09:53:46;;;;;;;0.70;0.60;;;29.20;54.80;;;;;;5033506;28;20517;-76
2022/08/01 09:56:13;;;;;;;0.77;0.77;;;29.20;53.60;;;;;;5033606;28;20438;-75
2022/08/01 09:58:54;;;;;;;0.70;0.70;;;29.30;53.80;;;;;;5033310;28;20447;-75
2022/08/01 10:01:23;;;;;;;0.70;0.70;;;29.30;53.10;;;;;;5033220;28;20475;-75
2022/08/01 10:04:12;;;;;;;1.17;0.70;;;29.10;53.70;;;;;;5033267;28;20448;-71
2022/08/01 10:06:40;;;;;;;0.70;0.70;;;29.10;54.10;;;;;;5033603;28;20440;-74
2022/08/01 10:09:06;;;;;;;0.70;0.70;;;29.00;53.60;;;;;;5033293;28;20784;-73
2022/08/01 10:11:36;;;;;;;0.70;0.70;;;29.00;54.00;;;;;;5033541;28;20778;-72
2022/08/01 10:14:03;;;;;;;0.70;0.63;;;29.10;53.90;;;;;;5033466;28;20444;-72
2022/08/01 10:16:34;;;;;;;0.73;0.60;;;29.30;54.40;;;;;;5033590;28;20451;-73
2022/08/01 10:19:02;;;;;;;0.70;0.67;;;29.60;55.00;;;;;;5033361;28;20479;-73
2022/08/01 10:21:31;;;;;;;1.10;0.70;;;29.80;54.10;;;;;;5033511;28;20471;-74
2022/08/01 10:23:59;;;;;;;0.90;0.83;;;29.80;54.20;;;;;;5035275;28;20451;-75
2022/08/01 10:26:27;;;;;;;0.80;0.80;;;29.70;54.60;;;;;;5037503;28;20450;-75
2022/08/01 10:28:55;;;;;;;0.80;0.70;;;29.70;54.40;;;;;;5037299;28;20201;-75
2022/08/01 10:31:22;;;;;;;0.70;0.70;;;29.50;54.40;;;;;;5037067;28;20471;-75
2022/08/01 10:33:51;;;;;;;0.90;0.70;;;29.40;54.70;;;;;;5036785;28;21014;-74
2022/08/01 10:36:20;;;;;;;0.70;0.70;;;29.30;54.60;;;;;;5036735;28;20942;-75
2022/08/01 10:38:47;;;;;;;0.70;0.67;;;29.20;55.50;;;;;;5037151;28;21006;-75
2022/08/01 10:41:16;;;;;;;0.70;0.60;;;29.30;55.50;;;;;;5036865;28;20494;-74
2022/08/01 10:43:43;;;;;;;0.70;0.70;;;29.50;55.30;;;;;;5036930;28;20530;-75
2022/08/01 10:46:10;;;;;;;0.70;0.70;;;29.60;55.90;;;;;;5037141;28;20477;-75
2022/08/01 10:48:43;;;;;;;0.73;0.63;;;29.80;55.20;;;;;;5036795;28;20455;-75
2022/08/01 10:51:12;;;;;;;0.70;0.60;;;30.20;53.70;;;;;;5036935;28;20474;-76
2022/08/01 10:53:47;;;;;;;0.90;0.77;;;30.40;53.20;;;;;;5036716;28;20452;-75
2022/08/01 10:56:16;;;;;;;0.80;0.60;;;30.40;54.20;;;;;;5036677;28;20442;-76
2022/08/01 10:58:44;;;;;;;1.33;0.70;;;30.50;52.30;;;;;;5036714;28;20455;-75
2022/08/01 11:01:24;;;;;;;0.70;0.60;;;30.50;52.70;;;;;;5036748;28;20475;-74
2022/08/01 11:04:02;;;;;;;0.70;0.60;;;30.20;53.30;;;;;;5036775;28;20435;-75
2022/08/01 11:06:42;;;;;;;0.70;0.70;;;30.20;53.50;;;;;;5036902;28;20485;-76
2022/08/01 11:09:25;;;;;;;0.70;0.60;;;30.00;53.50;;;;;;5036864;28;20437;-73
2022/08/01 11:12:01;;;;;;;0.87;0.70;;;29.80;53.90;;;;;;5034616;28;20471;-75
2022/08/01 11:14:29;;;;;;;0.80;0.60;;;29.80;54.10;;;;;;5036535;28;20478;-74
2022/08/01 11:16:56;;;;;;;0.80;0.60;;;29.80;53.80;;;;;;5036736;28;20452;-75
2022/08/01 11:19:23;;;;;;;0.70;0.60;;;29.80;54.70;;;;;;5036668;28;20501;-74
2022/08/01 11:22:03;;;;;;;0.70;0.60;;;29.60;54.40;;;;;;5036385;28;20525;-72
2022/08/01 11:24:56;;;;;;;0.70;0.70;;;29.40;54.40;;;;;;5036519;28;20489;-73
2022/08/01 11:27:25;;;;;;;0.70;0.70;;;29.30;54.90;;;;;;5036347;28;20873;-74
2022/08/01 11:30:21;;;;;;;0.93;0.63;;;29.00;55.30;;;;;;5036413;28;20447;-74
2022/08/01 11:32:49;;;;;;;0.70;0.60;;;29.00;55.60;;;;;;5036303;28;20471;-75
2022/08/01 11:35:16;;;;;;;0.70;0.70;;;29.00;55.60;;;;;;5035464;28;20445;-74
2022/08/01 11:37:44;;;;;;;0.70;0.60;;;29.00;55.70;;;;;;5036070;28;20497;-74
2022/08/01 11:40:19;;;;;;;0.70;0.63;;;29.00;56.30;;;;;;5036029;28;20479;-74
2022/08/01 11:42:46;;;;;;;0.70;0.60;;;29.10;55.90;;;;;;5035887;28;20462;-76
2022/08/01 11:45:13;;;;;;;0.83;0.70;;;29.00;55.40;;;;;;5035799;28;20805;-76
2022/08/01 11:47:45;;;;;;;0.70;0.60;;;29.00;55.60;;;;;;5035908;28;20502;-77
2022/08/01 11:50:36;;;;;;;0.80;0.70;;;29.00;55.00;;;;;;5035805;28;20526;-77
2022/08/01 11:53:06;;;;;;;0.80;0.70;;;29.00;55.60;;;;;;5036207;28;20523;-76
2022/08/01 11:55:34;;;;;;;0.70;0.70;;;29.00;54.90;;;;;;5036716;28;20485;-75
2022/08/01 11:58:02;;;;;;;0.70;0.60;;;28.90;55.10;;;;;;5036006;28;21012;-76
2022/08/01 12:00:30;;;;;;;0.90;0.80;;;29.00;55.20;;;;;;5035578;28;20487;-75
2022/08/01 12:03:01;;;;;;;0.70;0.60;;;29.10;54.90;;;;;;5035416;28;20467;-75
2022/08/01 12:05:29;;;;;;;1.10;0.70;;;29.00;54.40;;;;;;5035762;28;21012;-75
2022/08/01 12:07:57;;;;;;;0.80;0.67;;;29.00;54.70;;;;;;5035690;28;20440;-76
2022/08/01 12:10:28;;;;;;;0.70;0.60;;;29.10;54.80;;;;;;5035377;28;20444;-76
2022/08/01 12:12:57;;;;;;;0.70;0.60;;;29.20;55.00;;;;;;5037180;28;20447;-76
2022/08/01 12:15:25;;;;;;;0.70;0.70;;;29.20;55.00;;;;;;5036935;28;20448;-76
2022/08/01 12:17:57;;;;;;;0.70;0.60;;;29.10;55.10;;;;;;5037659;28;20453;-75
2022/08/01 12:20:24;;;;;;;0.80;0.70;;;29.00;54.70;;;;;;5035800;28;20472;-78
2022/08/01 12:22:54;;;;;;;0.70;0.67;;;29.10;55.20;;;;;;5035948;28;20859;-76
2022/08/01 12:25:20;;;;;;;0.70;0.70;;;29.00;54.30;;;;;;5035147;28;20443;-76
2022/08/01 12:27:49;;;;;;;0.80;0.80;;;29.00;55.40;;;;;;5035034;28;20451;-76
2022/08/01 12:30:18;;;;;;;0.70;0.60;;;29.10;54.90;;;;;;5035063;28;20535;-77
2022/08/01 12:32:46;;;;;;;0.80;0.60;;;29.00;54.10;;;;;;5034820;28;20471;-77
2022/08/01 12:35:15;;;;;;;0.70;0.60;;;28.80;55.30;;;;;;5036022;28;20452;-75
2022/08/01 12:37:44;;;;;;;0.70;0.60;;;28.80;54.00;;;;;;5036606;28;20448;-75
2022/08/01 12:40:14;;;;;;;0.70;0.60;;;29.00;54.60;;;;;;5037020;28;20518;-74
2022/08/01 12:42:41;;;;;;;0.70;0.60;;;29.10;53.20;;;;;;5036707;28;20925;-75
2022/08/01 12:45:12;;;;;;;0.70;0.60;;;29.30;53.90;;;;;;5037951;28;20443;-75
2022/08/01 12:47:39;;;;;;;0.70;0.50;;;29.50;53.80;;;;;;5037547;28;20915;-74
2022/08/01 12:50:08;;;;;;;0.70;0.70;;;29.30;54.10;;;;;;5036255;28;20923;-73
2022/08/01 12:52:35;;;;;;;0.70;0.60;;;29.20;54.10;;;;;;5036491;28;20475;-75
2022/08/01 12:55:12;;;;;;;0.70;0.63;;;29.00;54.50;;;;;;5036923;28;20514;-76
2022/08/01 12:57:41;;;;;;;0.70;0.60;;;29.20;54.70;;;;;;5037019;28;20431;-75
2022/08/01 13:00:16;;;;;;;0.90;0.60;;;29.40;53.60;;;;;;5036848;28;20858;-75
2022/08/01 13:02:45;;;;;;;0.70;0.70;;;29.70;54.10;;;;;;5036147;28;20525;-76
2022/08/01 13:05:12;;;;;;;0.70;0.60;;;29.70;53.60;;;;;;5036474;28;20810;-76
2022/08/01 13:07:42;;;;;;;0.70;0.60;;;29.90;53.40;;;;;;5037095;28;20444;-75
2022/08/01 13:10:10;;;;;;;0.70;0.70;;;30.20;53.40;;;;;;5037240;28;20517;-75
2022/08/01 13:12:37;;;;;;;0.70;0.70;;;30.60;53.00;;;;;;5036483;28;21038;-73
2022/08/01 13:15:23;;;;;;;0.80;0.63;;;30.70;51.70;;;;;;5035418;28;20451;-74
2022/08/01 13:17:50;;;;;;;1.13;0.80;;;30.50;50.40;;;;;;5037785;28;20534;-74
2022/08/01 13:20:31;;;;;;;0.70;0.60;;;30.30;51.80;;;;;;5037041;28;20483;-75
2022/08/01 13:23:15;;;;;;;0.70;0.70;;;30.30;51.00;;;;;;5038155;28;20416;-74
2022/08/01 13:25:49;;;;;;;0.70;0.60;;;30.50;51.20;;;;;;5035400;28;20452;-75
2022/08/01 13:28:17;;;;;;;0.70;0.60;;;30.40;51.90;;;;;;5037212;28;20504;-75
2022/08/01 13:30:54;;;;;;;0.70;0.60;;;30.40;52.10;;;;;;5038006;28;20491;-75
2022/08/01 13:33:20;;;;;;;0.70;0.60;;;30.40;51.80;;;;;;5036931;28;20490;-75
2022/08/01 13:35:48;;;;;;;0.70;0.60;;;30.50;52.60;;;;;;5036978;28;20867;-75
2022/08/01 13:38:15;;;;;;;1.10;0.60;;;30.60;51.30;;;;;;5037464;28;20474;-75
2022/08/01 13:40:41;;;;;;;0.80;0.60;;;30.80;51.70;;;;;;5038034;28;20894;-75
2022/08/01 13:43:08;;;;;;;0.70;0.60;;;31.00;50.50;;;;;;5037845;28;20440;-75
2022/08/01 13:45:35;;;;;;;0.70;0.60;;;31.40;50.40;;;;;;5037878;28;20451;-75
2022/08/01 13:48:03;;;;;;;0.80;0.60;;;31.60;50.30;;;;;;5037112;28;20439;-74
2022/08/01 13:50:30;;;;;;;0.80;0.60;;;31.60;50.20;;;;;;5036074;28;20939;-75
2022/08/01 13:52:57;;;;;;;1.27;0.60;;;31.40;49.70;;;;;;5035283;28;20939;-74
2022/08/01 13:55:23;;;;;;;1.00;0.60;;;31.30;50.10;;;;;;5034891;28;20514;-75
2022/08/01 13:57:50;;;;;;;1.37;1.00;;;31.30;50.50;;;;;;5034231;28;20443;-72
2022/08/01 14:00:17;;;;;;;0.70;0.70;;;31.20;50.70;;;;;;5033672;28;20483;-72
2022/08/01 14:02:44;;;;;;;1.10;0.90;;;31.20;51.40;;;;;;5033511;28;20480;-73
2022/08/01 14:05:12;;;;;;;0.80;0.70;;;31.30;50.70;;;;;;5033556;28;20819;-73
2022/08/01 14:07:39;;;;;;;0.70;0.60;;;31.40;50.20;;;;;;5034710;28;20451;-73
2022/08/01 14:10:06;;;;;;;0.90;0.90;;;31.30;49.70;;;;;;5035893;28;20801;-72
2022/08/01 14:12:33;;;;;;;0.70;0.70;;;31.20;49.70;;;;;;5033865;28;20546;-74
2022/08/01 14:14:59;;;;;;;0.80;0.70;;;31.10;49.80;;;;;;5033992;28;20804;-72
2022/08/01 14:17:26;;;;;;;0.80;0.80;;;31.00;50.00;;;;;;5034154;28;20447;-75
2022/08/01 14:19:53;;;;;;;0.80;0.70;;;31.10;50.00;;;;;;5035522;28;20474;-72
2022/08/01 14:22:21;;;;;;;0.70;0.60;;;31.30;49.40;;;;;;5033830;28;20472;-73
2022/08/01 14:24:48;;;;;;;0.70;0.60;;;31.30;49.70;;;;;;5033897;28;20452;-73
2022/08/01 14:27:15;;;;;;;0.70;0.60;;;31.40;50.10;;;;;;5034004;28;20550;-73
2022/08/01 14:29:42;;;;;;;1.10;0.70;;;31.60;50.10;;;;;;5033247;28;20450;-73
2022/08/01 14:32:08;;;;;;;0.70;0.60;;;31.90;49.80;;;;;;5033186;28;20855;-73
2022/08/01 14:34:35;;;;;;;0.70;0.60;;;32.10;48.90;;;;;;5033147;28;20451;-73
2022/08/01 14:37:02;;;;;;;0.70;0.50;;;32.40;49.00;;;;;;5033307;28;20455;-73
2022/08/01 14:39:30;;;;;;;1.47;0.70;;;32.40;47.90;;;;;;5033150;28;20447;-73
2022/08/01 14:41:57;;;;;;;0.70;0.60;;;32.50;47.90;;;;;;5033407;28;20545;-72
2022/08/01 14:44:23;;;;;;;0.90;0.70;;;32.40;48.80;;;;;;5033129;28;20478;-72
2022/08/01 14:46:50;;;;;;;0.70;0.60;;;32.50;48.20;;;;;;5033274;28;20455;-72
2022/08/01 14:49:17;;;;;;;0.70;0.60;;;32.60;47.60;;;;;;5033079;28;20448;-73
2022/08/01 14:51:43;;;;;;;0.70;0.60;;;32.90;47.90;;;;;;5033284;28;20462;-72
2022/08/01 14:54:10;;;;;;;0.67;0.50;;;33.10;47.90;;;;;;5033424;28;20559;-73
2022/08/01 14:56:38;;;;;;;0.70;0.70;;;33.30;47.30;;;;;;5033758;28;20498;-73
2022/08/01 14:59:04;;;;;;;0.60;0.50;;;33.40;46.70;;;;;;5033971;28;20450;-73
2022/08/01 15:01:31;;;;;;;0.60;0.60;;;33.40;46.10;;;;;;5032335;28;20496;-73
2022/08/01 15:03:58;;;;;;;0.70;0.60;;;33.40;45.70;;;;;;5032737;28;20455;-73
2022/08/01 15:06:24;;;;;;;0.67;0.60;;;33.40;45.50;;;;;;5032486;28;20857;-72
2022/08/01 15:08:51;;;;;;;0.70;0.60;;;33.30;46.00;;;;;;5032350;28;20447;-73
2022/08/01 15:11:18;;;;;;;0.80;0.70;;;33.20;45.80;;;;;;5034401;28;20831;-73
2022/08/01 15:14:47;;;;;;;0.60;0.60;;;33.20;46.20;;;;;;5035922;28;20828;-73
2022/08/01 15:16:32;;;;;;;0.70;0.60;;;33.10;46.00;;;;;;5036912;28;20451;-73
2022/08/01 15:18:59;;;;;;;0.63;0.50;;;32.80;46.20;;;;;;5036182;28;20443;-73
2022/08/01 15:21:26;;;;;;;1.30;0.60;;;32.60;46.70;;;;;;5035738;28;20483;-73
2022/08/01 15:23:52;;;;;;;0.67;0.60;;;32.30;46.90;;;;;;5036021;28;20498;-73
2022/08/01 15:26:19;;;;;;;0.77;0.60;;;32.10;48.00;;;;;;5035773;28;20870;-73
2022/08/01 15:28:47;;;;;;;0.70;0.60;;;32.00;47.30;;;;;;5035682;28;20451;-73
2022/08/01 15:31:14;;;;;;;1.67;0.70;;;32.00;47.80;;;;;;5035501;28;20840;-73
2022/08/01 15:33:40;;;;;;;0.70;0.60;;;32.00;48.10;;;;;;5035869;28;20455;-73
2022/08/01 15:36:07;;;;;;;0.70;0.60;;;31.90;48.60;;;;;;5035770;28;20451;-73
2022/08/01 15:38:34;;;;;;;0.70;0.60;;;31.90;47.60;;;;;;5035821;28;20486;-73
2022/08/01 15:41:01;;;;;;;0.60;0.57;;;31.90;47.80;;;;;;5035267;28;21068;-72
2022/08/01 15:43:28;;;;;;;0.70;0.60;;;31.90;47.70;;;;;;5035683;28;20546;-72
2022/08/01 15:45:56;;;;;;;0.70;0.60;;;31.80;47.80;;;;;;5035701;28;20497;-73
2022/08/01 15:48:23;;;;;;;0.70;0.50;;;31.70;47.60;;;;;;5035647;28;20447;-73
2022/08/01 15:50:50;;;;;;;0.70;0.60;;;31.60;47.90;;;;;;5035582;28;20875;-73
2022/08/01 15:53:17;;;;;;;0.90;0.60;;;31.50;48.30;;;;;;5035445;28;20498;-74
2022/08/01 15:55:43;;;;;;;0.77;0.77;;;31.40;47.90;;;;;;5035444;28;20561;-73